sensor_id;sensor_type;location;lat;lon;timestamp;pressure;altitude;pressure_sealevel;temperature;humidity
50123;BME280;36021;48.670;6.184;2022-07-23T00:00:42;99048.28;;;23.31;100.00
50123;BME280;36021;48.670;6.184;2022-07-23T00:03:08;99033.63;;;23.19;100.00
50123;BME280;36021;48.670;6.184;2022-07-23T00:05:33;99035.56;;;23.15;100.00
50123;BME280;36021;48.670;6.184;2022-07-23T00:07:59;99021.72;;;23.03;100.00
50123;BME280;36021;48.670;6.184;2022-07-23T00:10:25;99023.59;;;22.95;100.00
50123;BME280;36021;48.670;6.184;2022-07-23T00:12:51;99011.53;;;22.95;100.00
50123;BME280;36021;48.670;6.184;2022-07-23T00:15:17;99014.41;;;22.98;100.00
50123;BME280;36021;48.670;6.184;2022-07-23T00:17:43;99003.97;;;22.99;100.00
50123;BME280;36021;48.670;6.184;2022-07-23T00:20:10;99006.03;;;23.02;100.00
50123;BME280;36021;48.670;6.184;2022-07-23T00:22:36;99015.22;;;22.99;100.00
50123;BME280;36021;48.670;6.184;2022-07-23T00:25:02;99016.41;;;22.98;100.00
50123;BME280;36021;48.670;6.184;2022-07-23T00:27:27;99005.63;;;23.00;100.00
50123;BME280;36021;48.670;6.184;2022-07-23T00:29:53;98998.72;;;22.97;100.00
50123;BME280;36021;48.670;6.184;2022-07-23T00:32:19;99005.59;;;22.73;100.00
50123;BME280;36021;48.670;6.184;2022-07-23T00:34:44;99006.47;;;22.58;100.00
50123;BME280;36021;48.670;6.184;2022-07-23T00:37:10;99016.81;;;22.73;100.00
50123;BME280;36021;48.670;6.184;2022-07-23T00:39:36;99014.56;;;22.82;100.00
50123;BME280;36021;48.670;6.184;2022-07-23T00:42:02;99019.44;;;22.86;100.00
50123;BME280;36021;48.670;6.184;2022-07-23T00:44:28;99039.53;;;22.88;100.00
50123;BME280;36021;48.670;6.184;2022-07-23T00:46:56;99055.50;;;22.80;100.00
50123;BME280;36021;48.670;6.184;2022-07-23T00:49:27;99057.78;;;22.74;100.00
50123;BME280;36021;48.670;6.184;2022-07-23T00:51:54;99045.94;;;22.65;100.00
50123;BME280;36021;48.670;6.184;2022-07-23T00:54:22;99029.41;;;22.60;100.00
50123;BME280;36021;48.670;6.184;2022-07-23T00:56:49;99024.56;;;22.57;100.00
50123;BME280;36021;48.670;6.184;2022-07-23T00:59:15;99022.16;;;22.59;100.00
50123;BME280;36021;48.670;6.184;2022-07-23T01:01:41;99019.00;;;22.61;100.00
50123;BME280;36021;48.670;6.184;2022-07-23T01:04:07;99021.34;;;22.59;100.00
50123;BME280;36021;48.670;6.184;2022-07-23T01:06:38;99012.97;;;22.62;100.00
50123;BME280;36021;48.670;6.184;2022-07-23T01:09:05;99012.72;;;22.67;100.00
50123;BME280;36021;48.670;6.184;2022-07-23T01:11:34;99006.19;;;22.63;100.00
50123;BME280;36021;48.670;6.184;2022-07-23T01:14:13;99012.63;;;22.64;100.00
50123;BME280;36021;48.670;6.184;2022-07-23T01:16:41;99001.25;;;22.57;100.00
50123;BME280;36021;48.670;6.184;2022-07-23T01:19:08;98990.69;;;22.50;100.00
50123;BME280;36021;48.670;6.184;2022-07-23T01:21:40;98993.00;;;22.45;100.00
50123;BME280;36021;48.670;6.184;2022-07-23T01:24:07;98993.94;;;22.52;100.00
50123;BME280;36021;48.670;6.184;2022-07-23T01:26:37;98999.56;;;22.52;100.00
50123;BME280;36021;48.670;6.184;2022-07-23T01:29:03;99010.66;;;22.45;100.00
50123;BME280;36021;48.670;6.184;2022-07-23T01:31:30;99008.25;;;22.44;100.00
50123;BME280;36021;48.670;6.184;2022-07-23T01:33:56;99015.44;;;22.41;100.00
50123;BME280;36021;48.670;6.184;2022-07-23T01:36:22;99022.50;;;22.35;100.00
50123;BME280;36021;48.670;6.184;2022-07-23T01:38:48;99020.22;;;22.41;100.00
50123;BME280;36021;48.670;6.184;2022-07-23T01:41:14;99020.03;;;22.30;100.00
50123;BME280;36021;48.670;6.184;2022-07-23T01:43:40;99022.75;;;22.26;100.00
50123;BME280;36021;48.670;6.184;2022-07-23T01:46:06;99021.94;;;22.26;100.00
50123;BME280;36021;48.670;6.184;2022-07-23T01:48:38;99028.78;;;22.25;100.00
50123;BME280;36021;48.670;6.184;2022-07-23T01:51:18;99024.00;;;22.29;100.00
50123;BME280;36021;48.670;6.184;2022-07-23T01:53:52;99024.88;;;22.33;100.00
50123;BME280;36021;48.670;6.184;2022-07-23T01:56:18;99026.06;;;22.32;100.00
50123;BME280;36021;48.670;6.184;2022-07-23T01:58:47;99010.56;;;22.38;100.00
50123;BME280;36021;48.670;6.184;2022-07-23T02:01:13;99003.44;;;22.44;100.00
50123;BME280;36021;48.670;6.184;2022-07-23T02:03:39;99007.09;;;22.48;100.00
50123;BME280;36021;48.670;6.184;2022-07-23T02:06:05;99010.38;;;22.50;100.00
50123;BME280;36021;48.670;6.184;2022-07-23T02:08:30;99028.47;;;22.53;100.00
50123;BME280;36021;48.670;6.184;2022-07-23T02:10:56;99034.66;;;22.62;100.00
50123;BME280;36021;48.670;6.184;2022-07-23T02:13:23;99035.97;;;22.68;100.00
50123;BME280;36021;48.670;6.184;2022-07-23T02:15:49;99043.13;;;22.65;100.00
50123;BME280;36021;48.670;6.184;2022-07-23T02:18:15;99059.66;;;22.67;100.00
50123;BME280;36021;48.670;6.184;2022-07-23T02:20:41;99041.50;;;22.64;100.00
50123;BME280;36021;48.670;6.184;2022-07-23T02:23:07;99020.47;;;22.74;100.00
50123;BME280;36021;48.670;6.184;2022-07-23T02:25:34;99009.28;;;22.58;100.00
50123;BME280;36021;48.670;6.184;2022-07-23T02:28:01;99011.97;;;22.70;100.00
50123;BME280;36021;48.670;6.184;2022-07-23T02:30:26;99017.59;;;22.70;100.00
50123;BME280;36021;48.670;6.184;2022-07-23T02:32:52;99020.13;;;22.79;100.00
50123;BME280;36021;48.670;6.184;2022-07-23T02:35:18;99015.75;;;22.81;100.00
50123;BME280;36021;48.670;6.184;2022-07-23T02:37:43;99012.13;;;22.81;100.00
50123;BME280;36021;48.670;6.184;2022-07-23T02:40:10;99012.94;;;22.81;100.00
50123;BME280;36021;48.670;6.184;2022-07-23T02:42:38;99009.69;;;22.79;100.00
50123;BME280;36021;48.670;6.184;2022-07-23T02:45:04;99001.16;;;22.72;100.00
50123;BME280;36021;48.670;6.184;2022-07-23T02:47:32;98997.59;;;22.75;100.00
50123;BME280;36021;48.670;6.184;2022-07-23T02:49:59;98993.59;;;22.76;100.00
50123;BME280;36021;48.670;6.184;2022-07-23T02:52:25;99000.09;;;22.80;100.00
50123;BME280;36021;48.670;6.184;2022-07-23T02:54:53;99001.63;;;22.78;100.00
50123;BME280;36021;48.670;6.184;2022-07-23T02:57:19;99018.44;;;22.74;100.00
50123;BME280;36021;48.670;6.184;2022-07-23T02:59:45;99016.69;;;22.66;100.00
50123;BME280;36021;48.670;6.184;2022-07-23T03:02:10;99013.72;;;22.59;100.00
50123;BME280;36021;48.670;6.184;2022-07-23T03:04:37;99012.84;;;22.55;100.00
50123;BME280;36021;48.670;6.184;2022-07-23T03:07:03;99020.47;;;22.55;100.00
50123;BME280;36021;48.670;6.184;2022-07-23T03:09:30;99023.22;;;22.51;100.00
50123;BME280;36021;48.670;6.184;2022-07-23T03:11:56;99007.09;;;22.48;100.00
50123;BME280;36021;48.670;6.184;2022-07-23T03:14:22;99018.03;;;22.53;100.00
50123;BME280;36021;48.670;6.184;2022-07-23T03:16:49;99022.50;;;22.54;100.00
50123;BME280;36021;48.670;6.184;2022-07-23T03:19:17;99014.50;;;22.56;100.00
50123;BME280;36021;48.670;6.184;2022-07-23T03:21:43;99020.09;;;22.56;100.00
50123;BME280;36021;48.670;6.184;2022-07-23T03:24:11;99014.09;;;22.58;100.00
50123;BME280;36021;48.670;6.184;2022-07-23T03:26:39;99016.59;;;22.63;100.00
50123;BME280;36021;48.670;6.184;2022-07-23T03:29:05;99014.22;;;22.65;100.00
50123;BME280;36021;48.670;6.184;2022-07-23T03:31:31;99006.72;;;22.69;100.00
50123;BME280;36021;48.670;6.184;2022-07-23T03:33:58;98993.59;;;22.76;100.00
50123;BME280;36021;48.670;6.184;2022-07-23T03:36:24;98994.47;;;22.80;100.00
50123;BME280;36021;48.670;6.184;2022-07-23T03:38:52;99002.50;;;22.82;100.00
50123;BME280;36021;48.670;6.184;2022-07-23T03:41:19;99004.56;;;22.85;100.00
50123;BME280;36021;48.670;6.184;2022-07-23T03:43:45;99000.63;;;22.90;100.00
50123;BME280;36021;48.670;6.184;2022-07-23T03:46:11;99006.94;;;22.83;100.00
50123;BME280;36021;48.670;6.184;2022-07-23T03:48:37;99021.97;;;22.49;100.00
50123;BME280;36021;48.670;6.184;2022-07-23T03:51:04;99015.78;;;22.62;100.00
50123;BME280;36021;48.670;6.184;2022-07-23T03:53:30;99008.69;;;22.68;100.00
50123;BME280;36021;48.670;6.184;2022-07-23T03:55:56;99018.44;;;22.74;100.00
50123;BME280;36021;48.670;6.184;2022-07-23T03:58:22;99019.31;;;22.78;100.00
50123;BME280;36021;48.670;6.184;2022-07-23T04:00:48;99027.25;;;22.73;100.00
50123;BME280;36021;48.670;6.184;2022-07-23T04:03:15;99028.50;;;22.75;100.00
50123;BME280;36021;48.670;6.184;2022-07-23T04:05:41;99027.78;;;22.59;100.00
50123;BME280;36021;48.670;6.184;2022-07-23T04:08:11;99035.78;;;22.57;100.00
50123;BME280;36021;48.670;6.184;2022-07-23T04:10:39;99038.28;;;22.20;100.00
50123;BME280;36021;48.670;6.184;2022-07-23T04:13:06;99045.63;;;22.25;100.00
50123;BME280;36021;48.670;6.184;2022-07-23T04:15:32;99048.69;;;22.39;100.00
50123;BME280;36021;48.670;6.184;2022-07-23T04:17:59;99039.63;;;22.49;100.00
50123;BME280;36021;48.670;6.184;2022-07-23T04:20:34;99049.63;;;22.47;100.00
50123;BME280;36021;48.670;6.184;2022-07-23T04:23:02;99060.53;;;22.52;100.00
50123;BME280;36021;48.670;6.184;2022-07-23T04:25:27;99053.41;;;22.54;100.00
50123;BME280;36021;48.670;6.184;2022-07-23T04:27:53;99059.13;;;22.61;100.00
50123;BME280;36021;48.670;6.184;2022-07-23T04:30:19;99061.38;;;22.52;100.00
50123;BME280;36021;48.670;6.184;2022-07-23T04:32:45;99071.47;;;22.34;100.00
50123;BME280;36021;48.670;6.184;2022-07-23T04:35:19;99071.38;;;22.30;100.00
50123;BME280;36021;48.670;6.184;2022-07-23T04:37:46;99079.00;;;22.30;100.00
50123;BME280;36021;48.670;6.184;2022-07-23T04:40:12;99092.22;;;22.29;100.00
50123;BME280;36021;48.670;6.184;2022-07-23T04:42:39;99094.75;;;22.35;100.00
50123;BME280;36021;48.670;6.184;2022-07-23T04:45:05;99099.69;;;22.41;100.00
50123;BME280;36021;48.670;6.184;2022-07-23T04:47:32;99100.69;;;22.52;100.00
50123;BME280;36021;48.670;6.184;2022-07-23T04:49:58;99101.16;;;22.54;100.00
50123;BME280;36021;48.670;6.184;2022-07-23T04:52:24;99103.66;;;22.59;100.00
50123;BME280;36021;48.670;6.184;2022-07-23T04:54:50;99106.31;;;22.52;100.00
50123;BME280;36021;48.670;6.184;2022-07-23T04:57:16;99118.63;;;22.44;100.00
50123;BME280;36021;48.670;6.184;2022-07-23T04:59:41;99114.78;;;22.33;100.00
50123;BME280;36021;48.670;6.184;2022-07-23T05:02:08;99116.09;;;22.20;100.00
50123;BME280;36021;48.670;6.184;2022-07-23T05:04:34;99115.94;;;22.13;100.00
50123;BME280;36021;48.670;6.184;2022-07-23T05:07:01;99120.81;;;22.16;100.00
50123;BME280;36021;48.670;6.184;2022-07-23T05:09:28;99121.06;;;22.07;100.00
50123;BME280;36021;48.670;6.184;2022-07-23T05:11:54;99124.59;;;22.04;100.00
50123;BME280;36021;48.670;6.184;2022-07-23T05:14:21;99137.66;;;21.97;100.00
50123;BME280;36021;48.670;6.184;2022-07-23T05:16:47;99132.50;;;21.99;100.00
50123;BME280;36021;48.670;6.184;2022-07-23T05:19:20;99122.88;;;22.00;100.00
50123;BME280;36021;48.670;6.184;2022-07-23T05:21:46;99134.94;;;22.00;100.00
50123;BME280;36021;48.670;6.184;2022-07-23T05:24:13;99131.47;;;22.07;100.00
50123;BME280;36021;48.670;6.184;2022-07-23T05:26:38;99131.03;;;22.05;100.00
50123;BME280;36021;48.670;6.184;2022-07-23T05:29:04;99123.13;;;22.10;100.00
50123;BME280;36021;48.670;6.184;2022-07-23T05:31:30;99139.16;;;22.10;100.00
50123;BME280;36021;48.670;6.184;2022-07-23T05:33:56;99143.28;;;22.16;100.00
50123;BME280;36021;48.670;6.184;2022-07-23T05:36:21;99145.06;;;22.24;100.00
50123;BME280;36021;48.670;6.184;2022-07-23T05:38:55;99138.28;;;22.25;100.00
50123;BME280;36021;48.670;6.184;2022-07-23T05:41:22;99151.59;;;22.28;100.00
50123;BME280;36021;48.670;6.184;2022-07-23T05:43:47;99152.84;;;22.30;100.00
50123;BME280;36021;48.670;6.184;2022-07-23T05:46:14;99161.09;;;22.23;100.00
50123;BME280;36021;48.670;6.184;2022-07-23T05:48:41;99168.72;;;22.23;100.00
50123;BME280;36021;48.670;6.184;2022-07-23T05:51:23;99164.97;;;22.35;100.00
50123;BME280;36021;48.670;6.184;2022-07-23T05:53:50;99163.09;;;22.42;100.00
50123;BME280;36021;48.670;6.184;2022-07-23T05:56:19;99161.53;;;22.45;100.00
50123;BME280;36021;48.670;6.184;2022-07-23T05:58:44;99170.34;;;22.43;100.00
50123;BME280;36021;48.670;6.184;2022-07-23T06:01:11;99168.28;;;22.59;100.00
50123;BME280;36021;48.670;6.184;2022-07-23T06:03:48;99158.97;;;22.74;100.00
50123;BME280;36021;48.670;6.184;2022-07-23T06:06:13;99161.78;;;22.74;100.00
50123;BME280;36021;48.670;6.184;2022-07-23T06:08:39;99164.72;;;22.62;100.00
50123;BME280;36021;48.670;6.184;2022-07-23T06:11:07;99169.34;;;22.70;100.00
50123;BME280;36021;48.670;6.184;2022-07-23T06:13:33;99165.31;;;22.71;100.00
50123;BME280;36021;48.670;6.184;2022-07-23T06:15:58;99163.91;;;22.81;100.00
50123;BME280;36021;48.670;6.184;2022-07-23T06:18:25;99156.41;;;22.89;100.00
50123;BME280;36021;48.670;6.184;2022-07-23T06:20:52;99157.25;;;22.89;100.00
50123;BME280;36021;48.670;6.184;2022-07-23T06:23:18;99158.00;;;23.09;100.00
50123;BME280;36021;48.670;6.184;2022-07-23T06:25:44;99151.44;;;23.24;100.00
50123;BME280;36021;48.670;6.184;2022-07-23T06:28:09;99160.88;;;23.35;100.00
50123;BME280;36021;48.670;6.184;2022-07-23T06:30:35;99155.94;;;23.51;100.00
50123;BME280;36021;48.670;6.184;2022-07-23T06:33:02;99167.63;;;23.53;100.00
50123;BME280;36021;48.670;6.184;2022-07-23T06:35:28;99164.16;;;23.63;100.00
50123;BME280;36021;48.670;6.184;2022-07-23T06:37:54;99167.03;;;23.67;100.00
50123;BME280;36021;48.670;6.184;2022-07-23T06:40:20;99167.50;;;23.69;100.00
50123;BME280;36021;48.670;6.184;2022-07-23T06:42:46;99156.88;;;23.85;100.00
50123;BME280;36021;48.670;6.184;2022-07-23T06:45:18;99156.47;;;23.86;100.00
50123;BME280;36021;48.670;6.184;2022-07-23T06:47:43;99164.22;;;23.93;100.00
50123;BME280;36021;48.670;6.184;2022-07-23T06:50:11;99157.13;;;24.03;100.00
50123;BME280;36021;48.670;6.184;2022-07-23T06:52:36;99159.47;;;23.97;100.00
50123;BME280;36021;48.670;6.184;2022-07-23T06:55:05;99160.38;;;24.05;100.00
50123;BME280;36021;48.670;6.184;2022-07-23T06:57:30;99158.13;;;24.14;100.00
50123;BME280;36021;48.670;6.184;2022-07-23T06:59:56;99160.47;;;24.12;100.00
50123;BME280;36021;48.670;6.184;2022-07-23T07:02:22;99156.16;;;24.18;100.00
50123;BME280;36021;48.670;6.184;2022-07-23T07:04:48;99155.81;;;24.23;100.00
50123;BME280;36021;48.670;6.184;2022-07-23T07:07:14;99156.72;;;24.30;100.00
50123;BME280;36021;48.670;6.184;2022-07-23T07:09:40;99151.97;;;24.38;100.00
50123;BME280;36021;48.670;6.184;2022-07-23T07:12:07;99160.53;;;24.45;100.00
50123;BME280;36021;48.670;6.184;2022-07-23T07:14:33;99159.38;;;24.50;100.00
50123;BME280;36021;48.670;6.184;2022-07-23T07:16:58;99156.13;;;24.48;100.00
50123;BME280;36021;48.670;6.184;2022-07-23T07:19:26;99162.97;;;24.47;100.00
50123;BME280;36021;48.670;6.184;2022-07-23T07:21:51;99161.81;;;24.51;100.00
50123;BME280;36021;48.670;6.184;2022-07-23T07:24:17;99169.94;;;24.56;100.00
50123;BME280;36021;48.670;6.184;2022-07-23T07:26:42;99163.16;;;24.64;100.00
50123;BME280;36021;48.670;6.184;2022-07-23T07:29:08;99161.66;;;24.74;100.00
50123;BME280;36021;48.670;6.184;2022-07-23T07:31:34;99170.16;;;24.77;100.00
50123;BME280;36021;48.670;6.184;2022-07-23T07:33:59;99174.31;;;24.83;100.00
50123;BME280;36021;48.670;6.184;2022-07-23T07:36:25;99176.66;;;24.81;100.00
50123;BME280;36021;48.670;6.184;2022-07-23T07:38:51;99179.22;;;24.90;100.00
50123;BME280;36021;48.670;6.184;2022-07-23T07:41:17;99174.38;;;24.91;100.00
50123;BME280;36021;48.670;6.184;2022-07-23T07:43:48;99177.84;;;24.80;100.00
50123;BME280;36021;48.670;6.184;2022-07-23T07:46:13;99173.97;;;24.88;100.00
50123;BME280;36021;48.670;6.184;2022-07-23T07:48:39;99171.59;;;24.94;100.00
50123;BME280;36021;48.670;6.184;2022-07-23T07:51:05;99182.56;;;25.03;100.00
50123;BME280;36021;48.670;6.184;2022-07-23T07:53:31;99180.66;;;25.14;100.00
50123;BME280;36021;48.670;6.184;2022-07-23T07:55:56;99181.06;;;25.12;100.00
50123;BME280;36021;48.670;6.184;2022-07-23T07:58:22;99185.81;;;25.05;100.00
50123;BME280;36021;48.670;6.184;2022-07-23T08:00:48;99184.34;;;25.18;100.00
50123;BME280;36021;48.670;6.184;2022-07-23T08:03:13;99192.50;;;25.30;100.00
50123;BME280;36021;48.670;6.184;2022-07-23T08:05:39;99180.81;;;25.28;100.00
50123;BME280;36021;48.670;6.184;2022-07-23T08:08:05;99184.41;;;25.25;100.00
50123;BME280;36021;48.670;6.184;2022-07-23T08:10:32;99174.81;;;25.36;100.00
50123;BME280;36021;48.670;6.184;2022-07-23T08:12:58;99189.41;;;25.42;100.00
50123;BME280;36021;48.670;6.184;2022-07-23T08:15:27;99187.75;;;25.37;100.00
50123;BME280;36021;48.670;6.184;2022-07-23T08:17:53;99186.22;;;25.47;100.00
50123;BME280;36021;48.670;6.184;2022-07-23T08:20:22;99184.75;;;25.60;100.00
50123;BME280;36021;48.670;6.184;2022-07-23T08:23:05;99188.84;;;25.70;100.00
50123;BME280;36021;48.670;6.184;2022-07-23T08:25:33;99189.81;;;25.88;100.00
50123;BME280;36021;48.670;6.184;2022-07-23T08:27:59;99194.69;;;25.95;100.00
50123;BME280;36021;48.670;6.184;2022-07-23T08:30:26;99185.84;;;26.00;100.00
50123;BME280;36021;48.670;6.184;2022-07-23T08:32:55;99190.34;;;26.08;100.00
50123;BME280;36021;48.670;6.184;2022-07-23T08:35:43;99197.59;;;26.09;100.00
50123;BME280;36021;48.670;6.184;2022-07-23T08:38:11;99197.19;;;26.07;100.00
50123;BME280;36021;48.670;6.184;2022-07-23T08:40:42;99200.47;;;26.16;100.00
50123;BME280;36021;48.670;6.184;2022-07-23T08:43:10;99192.50;;;26.28;100.00
50123;BME280;36021;48.670;6.184;2022-07-23T08:45:38;99194.13;;;26.29;100.00
50123;BME280;36021;48.670;6.184;2022-07-23T08:48:07;99189.72;;;26.39;100.00
50123;BME280;36021;48.670;6.184;2022-07-23T08:50:35;99197.84;;;26.48;100.00
50123;BME280;36021;48.670;6.184;2022-07-23T08:53:07;99202.38;;;26.63;100.00
50123;BME280;36021;48.670;6.184;2022-07-23T08:55:33;99197.13;;;26.68;100.00
50123;BME280;36021;48.670;6.184;2022-07-23T08:58:00;99191.97;;;26.84;100.00
50123;BME280;36021;48.670;6.184;2022-07-23T09:00:26;99194.00;;;26.95;100.00
50123;BME280;36021;48.670;6.184;2022-07-23T09:02:51;99199.31;;;27.17;100.00
50123;BME280;36021;48.670;6.184;2022-07-23T09:05:18;99200.53;;;27.16;100.00
50123;BME280;36021;48.670;6.184;2022-07-23T09:10:57;99206.63;;;27.43;100.00
50123;BME280;36021;48.670;6.184;2022-07-23T09:18:40;99206.63;;;27.43;100.00
50123;BME280;36021;48.670;6.184;2022-07-23T09:21:12;99200.19;;;27.46;100.00
50123;BME280;36021;48.670;6.184;2022-07-23T09:23:56;99208.31;;;27.51;100.00
50123;BME280;36021;48.670;6.184;2022-07-23T09:26:27;99205.06;;;27.56;100.00
50123;BME280;36021;48.670;6.184;2022-07-23T09:28:58;99212.75;;;27.59;100.00
50123;BME280;36021;48.670;6.184;2022-07-23T09:31:25;99217.22;;;27.67;100.00
50123;BME280;36021;48.670;6.184;2022-07-23T09:33:51;99204.25;;;27.73;100.00
50123;BME280;36021;48.670;6.184;2022-07-23T09:36:31;99207.50;;;27.93;100.00
50123;BME280;36021;48.670;6.184;2022-07-23T09:39:00;99204.25;;;28.09;100.00
50123;BME280;36021;48.670;6.184;2022-07-23T09:41:34;99215.97;;;27.97;100.00
50123;BME280;36021;48.670;6.184;2022-07-23T09:44:10;99213.94;;;28.32;100.00
50123;BME280;36021;48.670;6.184;2022-07-23T09:46:38;99212.28;;;28.42;100.00
50123;BME280;36021;48.670;6.184;2022-07-23T09:49:17;99211.44;;;28.56;100.00
50123;BME280;36021;48.670;6.184;2022-07-23T09:51:46;99219.50;;;28.57;100.00
50123;BME280;36021;48.670;6.184;2022-07-23T09:54:33;99221.53;;;28.60;100.00
50123;BME280;36021;48.670;6.184;2022-07-23T09:57:04;99221.97;;;28.55;100.00
50123;BME280;36021;48.670;6.184;2022-07-23T09:59:33;99209.28;;;28.91;100.00
50123;BME280;36021;48.670;6.184;2022-07-23T10:02:00;99208.00;;;29.00;100.00
50123;BME280;36021;48.670;6.184;2022-07-23T10:04:29;99216.19;;;28.87;100.00
50123;BME280;36021;48.670;6.184;2022-07-23T10:07:17;99214.16;;;28.84;100.00
50123;BME280;36021;48.670;6.184;2022-07-23T10:10:18;99226.66;;;29.01;100.00
50123;BME280;36021;48.670;6.184;2022-07-23T10:13:02;99219.66;;;29.19;100.00
50123;BME280;36021;48.670;6.184;2022-07-23T10:15:41;99215.06;;;29.43;100.00
50123;BME280;36021;48.670;6.184;2022-07-23T10:18:10;99231.31;;;29.39;100.00
50123;BME280;36021;48.670;6.184;2022-07-23T10:20:38;99213.28;;;29.63;100.00
50123;BME280;36021;48.670;6.184;2022-07-23T10:23:18;99224.34;;;29.54;100.00
50123;BME280;36021;48.670;6.184;2022-07-23T10:26:13;99226.94;;;29.82;100.00
50123;BME280;36021;48.670;6.184;2022-07-23T10:29:00;99228.94;;;29.89;100.00
50123;BME280;36021;48.670;6.184;2022-07-23T10:34:21;99223.28;;;29.85;100.00
50123;BME280;36021;48.670;6.184;2022-07-23T10:37:14;99226.16;;;29.78;100.00
50123;BME280;36021;48.670;6.184;2022-07-23T10:40:09;99221.38;;;29.68;100.00
50123;BME280;36021;48.670;6.184;2022-07-23T10:42:36;99227.13;;;29.61;100.00
50123;BME280;36021;48.670;6.184;2022-07-23T10:45:25;99233.66;;;29.55;100.00
50123;BME280;36021;48.670;6.184;2022-07-23T10:47:53;99220.69;;;29.50;100.00
50123;BME280;36021;48.670;6.184;2022-07-23T10:50:24;99232.09;;;29.43;100.00
50123;BME280;36021;48.670;6.184;2022-07-23T10:53:09;99226.56;;;29.80;100.00
50123;BME280;36021;48.670;6.184;2022-07-23T10:58:04;99218.16;;;30.11;100.00
50123;BME280;36021;48.670;6.184;2022-07-23T11:00:31;99224.94;;;30.24;100.00
50123;BME280;36021;48.670;6.184;2022-07-23T11:03:03;99219.50;;;29.99;100.00
50123;BME280;36021;48.670;6.184;2022-07-23T11:05:45;99213.31;;;30.08;100.00
50123;BME280;36021;48.670;6.184;2022-07-23T11:08:14;99215.22;;;30.21;100.00
50123;BME280;36021;48.670;6.184;2022-07-23T11:10:47;99218.41;;;30.27;100.00
50123;BME280;36021;48.670;6.184;2022-07-23T11:32:23;99224.63;;;29.67;100.00
50123;BME280;36021;48.670;6.184;2022-07-23T11:34:50;99234.84;;;29.61;100.00
50123;BME280;36021;48.670;6.184;2022-07-23T11:37:31;99241.00;;;29.45;100.00
50123;BME280;36021;48.670;6.184;2022-07-23T11:39:58;99230.41;;;29.56;100.00
50123;BME280;36021;48.670;6.184;2022-07-23T11:42:23;99240.91;;;29.63;100.00
50123;BME280;36021;48.670;6.184;2022-07-23T11:44:50;99231.88;;;29.71;100.00
50123;BME280;36021;48.670;6.184;2022-07-23T11:47:25;99230.63;;;29.83;100.00
50123;BME280;36021;48.670;6.184;2022-07-23T11:49:57;99226.91;;;29.89;100.00
50123;BME280;36021;48.670;6.184;2022-07-23T11:52:24;99221.19;;;29.93;100.00
50123;BME280;36021;48.670;6.184;2022-07-23T11:55:08;99221.50;;;30.02;100.00
50123;BME280;36021;48.670;6.184;2022-07-23T11:57:36;99216.03;;;30.22;100.00
50123;BME280;36021;48.670;6.184;2022-07-23T12:02:43;99217.66;;;30.60;100.00
50123;BME280;36021;48.670;6.184;2022-07-23T12:05:21;99217.22;;;30.65;100.00
50123;BME280;36021;48.670;6.184;2022-07-23T12:07:49;99220.03;;;30.28;100.00
50123;BME280;36021;48.670;6.184;2022-07-23T12:10:25;99215.91;;;30.36;100.00
50123;BME280;36021;48.670;6.184;2022-07-23T12:12:54;99214.88;;;30.16;100.00
50123;BME280;36021;48.670;6.184;2022-07-23T12:17:56;99217.34;;;30.14;100.00
50123;BME280;36021;48.670;6.184;2022-07-23T12:20:26;99208.13;;;30.40;100.00
50123;BME280;36021;48.670;6.184;2022-07-23T12:23:00;99208.88;;;30.47;100.00
50123;BME280;36021;48.670;6.184;2022-07-23T12:25:28;99205.38;;;30.33;100.00
50123;BME280;36021;48.670;6.184;2022-07-23T12:30:27;99202.88;;;30.35;100.00
50123;BME280;36021;48.670;6.184;2022-07-23T12:32:55;99206.56;;;30.35;100.00
50123;BME280;36021;48.670;6.184;2022-07-23T12:35:23;99207.72;;;30.41;100.00
50123;BME280;36021;48.670;6.184;2022-07-23T12:37:50;99206.03;;;30.47;100.00
50123;BME280;36021;48.670;6.184;2022-07-23T12:42:48;99203.03;;;30.62;100.00
50123;BME280;36021;48.670;6.184;2022-07-23T12:45:14;99207.38;;;30.36;100.00
50123;BME280;36021;48.670;6.184;2022-07-23T12:47:54;99202.56;;;30.29;100.00
50123;BME280;36021;48.670;6.184;2022-07-23T12:53:25;99206.41;;;30.09;100.00
50123;BME280;36021;48.670;6.184;2022-07-23T12:56:07;99207.81;;;30.31;100.00
50123;BME280;36021;48.670;6.184;2022-07-23T13:01:05;99209.19;;;30.16;100.00
50123;BME280;36021;48.670;6.184;2022-07-23T13:03:41;99212.06;;;30.12;100.00
50123;BME280;36021;48.670;6.184;2022-07-23T13:06:10;99209.84;;;30.30;100.00
50123;BME280;36021;48.670;6.184;2022-07-23T13:08:38;99210.91;;;30.47;100.00
50123;BME280;36021;48.670;6.184;2022-07-23T13:11:05;99216.81;;;30.26;100.00
50123;BME280;36021;48.670;6.184;2022-07-23T13:13:33;99211.91;;;30.30;100.00
50123;BME280;36021;48.670;6.184;2022-07-23T13:16:00;99200.97;;;30.25;100.00
50123;BME280;36021;48.670;6.184;2022-07-23T13:18:27;99205.25;;;30.03;100.00
50123;BME280;36021;48.670;6.184;2022-07-23T13:20:53;99214.69;;;29.92;100.00
50123;BME280;36021;48.670;6.184;2022-07-23T13:23:19;99207.75;;;29.97;100.00
50123;BME280;36021;48.670;6.184;2022-07-23T13:25:46;99216.31;;;29.93;100.00
50123;BME280;36021;48.670;6.184;2022-07-23T13:28:13;99219.59;;;29.88;100.00
50123;BME280;36021;48.670;6.184;2022-07-23T13:30:39;99215.31;;;30.11;100.00
50123;BME280;36021;48.670;6.184;2022-07-23T13:33:05;99216.06;;;30.18;100.00
50123;BME280;36021;48.670;6.184;2022-07-23T13:35:32;99219.75;;;30.15;100.00
50123;BME280;36021;48.670;6.184;2022-07-23T13:37:58;99224.22;;;30.57;100.00
50123;BME280;36021;48.670;6.184;2022-07-23T13:40:24;99216.06;;;30.89;100.00
50123;BME280;36021;48.670;6.184;2022-07-23T13:42:50;99217.41;;;31.42;100.00
50123;BME280;36021;48.670;6.184;2022-07-23T13:45:16;99216.53;;;31.45;100.00